Time;durP1;ratioP1;P1;durP2;ratioP2;P2;SDS_P1;SDS_P2;PMS_P1;PMS_P2;Temp;Humidity;BMP_temperature;BMP_pressure;BME280_temperature;BME280_humidity;BME280_pressure;Samples;Min_cycle;Max_cycle;Signal;HPM_P1;HPM_P2
2022/05/24 00:01:34;;;;;;;15.33;4.77;;;15.30;84.10;;;;;;5076341;28;20192;-87
2022/05/24 00:03:59;;;;;;;6.87;4.93;;;15.20;83.50;;;;;;5077412;28;20177;-86
2022/05/24 00:06:31;;;;;;;8.60;4.50;;;15.30;84.20;;;;;;5088356;28;20200;-86
2022/05/24 00:08:57;;;;;;;7.00;3.65;;;15.20;84.10;;;;;;5088009;28;20188;-87
2022/05/24 00:17:16;;;;;;;7.82;4.22;;;15.20;82.50;;;;;;5097094;28;20202;-87
2022/05/24 00:19:42;;;;;;;9.30;3.87;;;15.10;83.50;;;;;;5079432;28;20585;-85
2022/05/24 00:22:08;;;;;;;10.43;3.80;;;15.10;84.40;;;;;;5084150;28;20584;-86
2022/05/24 00:24:33;;;;;;;7.50;4.13;;;15.10;84.70;;;;;;5064062;28;20457;-85
2022/05/24 00:26:59;;;;;;;9.93;3.83;;;15.00;84.70;;;;;;5097148;28;20238;-86
2022/05/24 00:29:25;;;;;;;8.17;3.27;;;15.00;83.80;;;;;;5079142;28;20226;-86
2022/05/24 00:31:50;;;;;;;7.70;3.50;;;15.10;83.30;;;;;;5078481;28;20207;-85
2022/05/24 00:34:16;;;;;;;6.33;3.37;;;15.00;83.40;;;;;;5078456;28;20172;-86
2022/05/24 00:36:45;;;;;;;5.67;3.53;;;15.00;83.10;;;;;;5078425;28;20187;-86
2022/05/24 00:39:11;;;;;;;5.70;3.55;;;14.90;81.70;;;;;;5076842;28;20267;-85
2022/05/24 00:41:54;;;;;;;8.00;3.30;;;15.00;82.50;;;;;;5076161;28;20215;-86
2022/05/24 00:44:33;;;;;;;10.55;4.15;;;14.90;82.20;;;;;;5075023;28;20758;-86
2022/05/24 00:47:48;;;;;;;4.20;3.10;;;14.90;82.70;;;;;;5074302;28;20238;-86
2022/05/24 00:50:21;;;;;;;10.45;4.13;;;14.90;83.50;;;;;;5075053;28;20161;-86
2022/05/24 00:52:54;;;;;;;9.43;3.67;;;14.80;84.00;;;;;;5075683;28;20163;-85
2022/05/24 00:55:22;;;;;;;8.65;3.30;;;14.80;83.50;;;;;;5075309;28;20169;-86
2022/05/24 00:58:17;;;;;;;8.63;4.07;;;14.70;83.50;;;;;;5078120;28;20307;-85
2022/05/24 01:00:43;;;;;;;5.57;2.83;;;14.70;83.50;;;;;;5078479;28;20203;-86
2022/05/24 01:03:09;;;;;;;7.03;3.80;;;14.70;83.80;;;;;;5075441;28;20279;-86
2022/05/24 01:05:35;;;;;;;8.07;3.95;;;14.70;83.80;;;;;;5076280;28;20688;-86
2022/05/24 01:08:01;;;;;;;7.00;3.47;;;14.70;83.20;;;;;;5081239;28;20192;-86
2022/05/24 01:10:32;;;;;;;7.80;3.03;;;14.70;84.30;;;;;;5087934;28;20414;-85
2022/05/24 01:13:07;;;;;;;8.45;3.80;;;14.70;83.50;;;;;;5084666;28;20176;-85
2022/05/24 01:15:34;;;;;;;7.60;3.00;;;14.70;83.70;;;;;;5085463;28;20175;-86
2022/05/24 01:18:00;;;;;;;6.65;4.07;;;14.70;84.20;;;;;;5110977;28;20190;-86
2022/05/24 01:20:26;;;;;;;8.27;3.38;;;14.70;83.70;;;;;;5106004;28;20188;-86
2022/05/24 01:22:52;;;;;;;9.13;3.70;;;14.70;83.90;;;;;;5078275;28;20172;-86
2022/05/24 01:25:28;;;;;;;7.37;3.50;;;14.70;83.90;;;;;;5077793;28;20198;-86
2022/05/24 01:27:53;;;;;;;7.55;3.78;;;14.70;84.10;;;;;;5077302;28;20191;-86
2022/05/24 01:30:19;;;;;;;7.80;3.50;;;14.60;83.70;;;;;;5078370;28;20530;-85
2022/05/24 01:36:10;;;;;;;13.13;4.47;;;14.50;83.80;;;;;;5097733;28;20187;-85
2022/05/24 01:38:44;;;;;;;7.60;3.90;;;14.60;84.10;;;;;;5080117;28;20199;-86
2022/05/24 01:41:14;;;;;;;6.80;3.53;;;14.60;85.00;;;;;;5084840;28;20236;-86
2022/05/24 01:43:42;;;;;;;11.70;3.38;;;14.50;84.60;;;;;;5078149;28;20187;-87
2022/05/24 01:46:11;;;;;;;6.40;3.75;;;14.50;84.50;;;;;;5096867;28;20234;-87
2022/05/24 01:48:44;;;;;;;6.97;3.67;;;14.50;84.40;;;;;;5117726;28;20216;-87
2022/05/24 01:51:13;;;;;;;7.45;3.20;;;14.40;84.30;;;;;;5080282;28;20172;-86
2022/05/24 01:53:44;;;;;;;5.97;4.10;;;14.50;83.50;;;;;;5095624;28;20202;-87
2022/05/24 01:56:44;;;;;;;9.35;3.58;;;14.50;83.50;;;;;;5077151;28;20199;-86
2022/05/24 01:59:12;;;;;;;7.18;3.42;;;14.40;84.40;;;;;;5078336;28;20204;-87
2022/05/24 02:01:40;;;;;;;7.55;3.55;;;14.40;84.80;;;;;;5100947;28;20172;-87
2022/05/24 02:04:06;;;;;;;11.68;4.32;;;14.30;85.20;;;;;;5104119;28;20171;-86
2022/05/24 02:06:32;;;;;;;6.00;3.90;;;14.30;85.60;;;;;;5095988;28;20200;-88
2022/05/24 02:08:58;;;;;;;9.52;3.92;;;14.30;86.20;;;;;;5095614;28;20222;-86
2022/05/24 02:11:26;;;;;;;9.03;4.53;;;14.30;85.90;;;;;;5077595;28;20176;-85
2022/05/24 02:14:09;;;;;;;9.40;3.90;;;14.30;85.30;;;;;;5078974;28;20193;-86
2022/05/24 02:16:39;;;;;;;6.13;3.30;;;14.30;85.40;;;;;;5056349;28;20180;-86
2022/05/24 02:19:06;;;;;;;7.13;3.63;;;14.30;86.20;;;;;;5077255;28;20241;-85
2022/05/24 02:21:32;;;;;;;10.93;4.18;;;14.30;85.80;;;;;;5076483;28;20724;-85
2022/05/24 02:24:18;;;;;;;4.70;3.07;;;14.30;86.70;;;;;;5076792;28;20183;-85
2022/05/24 02:26:44;;;;;;;11.25;4.03;;;14.40;86.00;;;;;;5076826;28;20743;-85
2022/05/24 02:29:10;;;;;;;4.65;2.97;;;14.40;84.70;;;;;;5102843;28;20550;-86
2022/05/24 02:31:36;;;;;;;8.83;4.20;;;14.40;85.20;;;;;;5088497;28;20259;-85
2022/05/24 02:34:02;;;;;;;7.97;3.83;;;14.50;84.20;;;;;;5076822;28;20414;-85
2022/05/24 02:36:28;;;;;;;8.52;2.85;;;14.50;85.10;;;;;;5077418;28;20186;-85
2022/05/24 02:38:54;;;;;;;10.47;3.80;;;14.50;85.00;;;;;;5060060;28;20204;-85
2022/05/24 02:41:28;;;;;;;7.87;3.83;;;14.50;85.80;;;;;;5095635;28;20190;-85
2022/05/24 02:44:03;;;;;;;10.43;3.30;;;14.50;86.00;;;;;;5095591;28;20496;-85
2022/05/24 02:46:33;;;;;;;7.20;3.63;;;14.60;84.50;;;;;;5077445;28;20216;-85
2022/05/24 02:48:59;;;;;;;10.63;3.45;;;14.60;83.80;;;;;;5076181;28;20778;-85
2022/05/24 02:51:37;;;;;;;5.80;2.90;;;14.60;84.60;;;;;;5091478;28;20262;-85
2022/05/24 02:54:04;;;;;;;8.07;3.55;;;14.60;84.30;;;;;;5072348;28;20179;-85
2022/05/24 02:56:29;;;;;;;12.02;2.85;;;14.70;83.70;;;;;;5089254;28;20188;-86
2022/05/24 02:58:56;;;;;;;9.70;3.10;;;14.70;83.80;;;;;;5075642;28;20191;-85
2022/05/24 03:01:26;;;;;;;6.07;2.80;;;14.60;83.50;;;;;;5093879;28;20168;-85
2022/05/24 03:03:53;;;;;;;9.10;3.63;;;14.60;83.80;;;;;;5076252;28;20168;-85
2022/05/24 03:06:21;;;;;;;7.22;2.90;;;14.60;84.30;;;;;;5076221;28;20204;-86
2022/05/24 03:14:14;;;;;;;6.35;2.75;;;14.70;82.00;;;;;;5094334;28;20183;-85
2022/05/24 03:14:21;;;;;;;5.20;2.88;;;14.70;82.00;;;;;;5093278;28;20191;-86
2022/05/24 03:16:49;;;;;;;11.45;3.47;;;14.60;82.40;;;;;;5075401;28;20640;-86
2022/05/24 03:19:15;;;;;;;8.73;3.40;;;14.50;82.50;;;;;;5075246;28;20339;-85
2022/05/24 03:21:43;;;;;;;9.20;3.00;;;14.50;83.70;;;;;;5076089;28;20179;-85
2022/05/24 03:24:11;;;;;;;9.27;3.80;;;14.50;84.20;;;;;;5094331;28;20668;-86
2022/05/24 03:26:37;;;;;;;14.63;3.50;;;14.40;83.90;;;;;;5075572;28;20187;-85
2022/05/24 03:29:04;;;;;;;9.82;2.63;;;14.40;83.30;;;;;;5075386;28;20207;-85
2022/05/24 03:31:31;;;;;;;7.97;2.92;;;14.40;83.30;;;;;;5076201;28;20199;-86
2022/05/24 03:33:57;;;;;;;8.10;2.80;;;14.50;83.70;;;;;;5076595;28;20184;-86
2022/05/24 03:36:23;;;;;;;10.88;3.22;;;14.40;83.10;;;;;;5074808;28;20179;-88
2022/05/24 03:38:49;;;;;;;5.10;2.47;;;14.40;82.90;;;;;;5085308;28;20216;-88
2022/05/24 03:41:15;;;;;;;8.10;3.10;;;14.40;83.60;;;;;;5088120;28;20438;-85
2022/05/24 03:43:40;;;;;;;10.73;3.53;;;14.50;83.50;;;;;;5075137;28;20177;-85
2022/05/24 03:46:09;;;;;;;11.07;2.70;;;14.40;83.10;;;;;;5074403;28;20545;-85
2022/05/24 03:48:35;;;;;;;6.93;2.80;;;14.40;82.50;;;;;;5081219;28;20456;-87
2022/05/24 03:51:02;;;;;;;10.30;3.07;;;14.40;82.80;;;;;;5091002;28;20188;-85
2022/05/24 03:53:28;;;;;;;5.55;2.53;;;14.40;82.60;;;;;;5085131;28;20445;-84
2022/05/24 03:55:54;;;;;;;12.70;4.45;;;14.50;80.20;;;;;;5095033;28;20664;-85
2022/05/24 03:58:21;;;;;;;8.43;2.97;;;14.40;81.40;;;;;;5076481;28;20249;-84
2022/05/24 04:00:47;;;;;;;8.85;2.53;;;14.30;82.00;;;;;;5097177;28;20422;-85
2022/05/24 04:03:14;;;;;;;9.90;3.00;;;14.30;81.80;;;;;;5085712;28;20172;-84
2022/05/24 04:05:40;;;;;;;5.25;2.67;;;14.30;82.40;;;;;;5085034;28;20468;-84
2022/05/24 04:08:10;;;;;;;7.03;2.60;;;14.30;82.80;;;;;;5080605;28;20199;-85
2022/05/24 04:10:39;;;;;;;5.60;2.90;;;14.40;81.40;;;;;;5081525;28;20191;-85
2022/05/24 04:13:06;;;;;;;7.80;3.30;;;14.50;79.60;;;;;;5096881;28;20175;-86
2022/05/24 04:15:32;;;;;;;8.70;3.05;;;14.40;80.60;;;;;;5094465;28;20187;-86
2022/05/24 04:17:58;;;;;;;6.40;2.50;;;14.20;81.60;;;;;;5098727;28;20555;-86
2022/05/24 04:20:26;;;;;;;12.10;2.70;;;14.20;81.40;;;;;;5101797;28;20188;-86
2022/05/24 04:22:54;;;;;;;8.35;3.00;;;14.30;82.00;;;;;;5088522;28;20471;-86
2022/05/24 04:25:20;;;;;;;8.48;2.92;;;14.20;81.70;;;;;;5080503;28;20175;-86
2022/05/24 04:27:46;;;;;;;10.98;3.63;;;14.30;81.80;;;;;;5095800;28;20568;-86
2022/05/24 04:30:13;;;;;;;12.63;2.72;;;14.20;81.60;;;;;;5078412;28;20172;-86
2022/05/24 04:32:39;;;;;;;6.75;2.75;;;14.20;82.40;;;;;;5078354;28;20178;-87
2022/05/24 04:35:06;;;;;;;8.73;2.70;;;14.20;82.20;;;;;;5075735;28;20620;-87
2022/05/24 04:37:31;;;;;;;7.70;2.72;;;14.20;82.40;;;;;;5075052;28;20553;-87
2022/05/24 04:39:57;;;;;;;6.00;2.53;;;14.20;82.10;;;;;;5077141;28;20187;-87
2022/05/24 04:42:23;;;;;;;5.90;2.47;;;14.10;82.60;;;;;;5078764;28;20195;-86
2022/05/24 04:44:53;;;;;;;10.67;2.57;;;14.20;82.40;;;;;;5061982;28;20187;-86
2022/05/24 04:47:21;;;;;;;7.97;2.70;;;14.20;82.10;;;;;;5078767;28;20465;-86
2022/05/24 04:49:53;;;;;;;5.63;2.50;;;14.20;81.50;;;;;;5075533;28;20182;-86
2022/05/24 04:52:20;;;;;;;11.50;2.88;;;14.20;81.80;;;;;;5080713;28;20213;-86
2022/05/24 04:54:47;;;;;;;7.55;2.95;;;14.10;82.50;;;;;;5086439;28;20186;-88
2022/05/24 04:57:14;;;;;;;8.25;2.33;;;14.10;81.60;;;;;;5087302;28;20203;-86
2022/05/24 04:59:41;;;;;;;11.25;2.55;;;14.20;81.60;;;;;;5065799;28;20188;-87
2022/05/24 05:02:07;;;;;;;8.65;2.40;;;14.20;81.00;;;;;;5083329;28;20184;-87
2022/05/24 05:04:42;;;;;;;5.18;2.05;;;14.20;81.90;;;;;;5076654;28;20184;-88
2022/05/24 05:07:08;;;;;;;11.20;2.80;;;14.20;81.80;;;;;;5067946;28;20207;-87
2022/05/24 05:09:34;;;;;;;6.88;2.58;;;14.10;82.00;;;;;;5096424;28;20191;-85
2022/05/24 05:12:08;;;;;;;6.60;2.40;;;14.10;82.60;;;;;;5092031;28;20169;-86
2022/05/24 05:14:35;;;;;;;8.25;2.63;;;14.10;83.00;;;;;;5093345;28;20410;-86
2022/05/24 05:17:16;;;;;;;8.07;2.80;;;14.20;82.10;;;;;;5078309;28;20312;-87
2022/05/24 05:19:42;;;;;;;7.38;2.17;;;14.50;80.30;;;;;;5075829;28;20279;-86
2022/05/24 05:23:03;;;;;;;7.45;2.13;;;15.00;79.90;;;;;;5080665;28;20203;-87
2022/05/24 05:25:29;;;;;;;6.93;2.10;;;16.10;77.10;;;;;;5079985;28;20176;-86
2022/05/24 05:27:57;;;;;;;8.23;2.60;;;17.10;72.00;;;;;;5102528;28;20203;-86
2022/05/24 05:33:08;;;;;;;6.57;2.08;;;18.50;65.60;;;;;;5092780;28;20260;-86
2022/05/24 05:35:34;;;;;;;6.05;2.33;;;19.10;64.30;;;;;;5062806;28;20173;-87
2022/05/24 05:38:00;;;;;;;4.80;1.90;;;19.80;60.00;;;;;;5059335;28;20260;-86
2022/05/24 05:40:25;;;;;;;7.17;1.93;;;20.10;58.70;;;;;;5077786;28;20414;-87
2022/05/24 05:42:51;;;;;;;9.23;2.20;;;20.00;58.90;;;;;;5087584;28;20188;-88
2022/05/24 05:45:17;;;;;;;4.97;1.73;;;20.10;57.70;;;;;;5079025;28;20173;-86
2022/05/24 05:47:43;;;;;;;11.20;2.30;;;20.10;57.60;;;;;;5058110;28;20215;-86
2022/05/24 05:50:09;;;;;;;3.73;1.60;;;20.00;58.00;;;;;;5075276;28;20181;-88
2022/05/24 05:52:35;;;;;;;8.30;2.50;;;20.40;57.60;;;;;;5057993;28;20180;-86
2022/05/24 05:55:01;;;;;;;5.17;1.90;;;20.10;58.20;;;;;;5057540;28;20786;-86
2022/05/24 05:57:27;;;;;;;5.73;2.50;;;20.50;56.20;;;;;;5075165;28;20533;-86
2022/05/24 05:59:53;;;;;;;5.93;1.80;;;20.00;57.70;;;;;;5075546;28;20427;-86
2022/05/24 06:02:19;;;;;;;7.57;2.60;;;19.60;58.40;;;;;;5075753;28;20180;-85
2022/05/24 06:04:45;;;;;;;5.07;2.10;;;19.20;58.90;;;;;;5057519;28;20960;-86
2022/05/24 06:07:10;;;;;;;5.93;2.10;;;19.00;60.30;;;;;;5058156;28;20212;-89
2022/05/24 06:09:37;;;;;;;4.47;1.90;;;18.90;60.90;;;;;;5075888;28;20419;-86
2022/05/24 06:12:03;;;;;;;3.67;2.33;;;19.30;60.40;;;;;;5058638;28;20211;-87
2022/05/24 06:14:29;;;;;;;4.83;1.80;;;19.40;60.30;;;;;;5058786;28;20475;-87
2022/05/24 06:16:56;;;;;;;4.60;1.80;;;19.30;59.80;;;;;;5043792;28;20514;-88
2022/05/24 06:19:21;;;;;;;3.90;2.33;;;19.80;59.30;;;;;;5061530;28;20204;-88
2022/05/24 06:21:47;;;;;;;3.27;2.00;;;20.00;57.90;;;;;;5046590;28;20423;-87
2022/05/24 06:24:14;;;;;;;6.70;2.30;;;20.50;55.70;;;;;;5048825;28;20181;-87
2022/05/24 06:26:40;;;;;;;4.80;1.97;;;20.50;56.20;;;;;;5058221;28;20211;-88
2022/05/24 06:29:06;;;;;;;6.90;2.03;;;20.50;55.20;;;;;;5057632;28;20496;-87
2022/05/24 06:31:32;;;;;;;4.77;1.70;;;20.00;55.30;;;;;;5058131;28;20411;-86
2022/05/24 06:33:58;;;;;;;5.40;1.70;;;19.40;56.70;;;;;;5062351;28;20446;-89
2022/05/24 06:36:24;;;;;;;6.90;2.60;;;18.90;58.90;;;;;;5065452;28;20438;-89
2022/05/24 06:38:50;;;;;;;4.93;1.70;;;18.60;59.90;;;;;;5064049;28;20267;-88
2022/05/24 06:41:16;;;;;;;5.53;1.87;;;18.40;60.40;;;;;;5077568;28;20779;-89
2022/05/24 06:43:41;;;;;;;3.90;1.47;;;18.70;58.80;;;;;;5058985;28;20514;-88
2022/05/24 06:46:08;;;;;;;5.50;1.53;;;18.50;59.80;;;;;;5058589;28;20219;-88
2022/05/24 06:48:38;;;;;;;5.50;1.83;;;18.50;60.20;;;;;;5071083;28;20474;-88
2022/05/24 06:51:12;;;;;;;5.22;1.90;;;18.40;60.20;;;;;;5078907;28;20207;-88
2022/05/24 06:53:39;;;;;;;5.90;1.60;;;18.10;60.50;;;;;;5097087;28;20343;-88
2022/05/24 06:56:06;;;;;;;5.13;1.52;;;18.10;60.90;;;;;;5078119;28;20272;-89
2022/05/24 06:58:33;;;;;;;4.85;1.67;;;18.50;60.40;;;;;;5078977;28;20195;-88
2022/05/24 07:03:45;;;;;;;5.35;1.92;;;19.30;56.90;;;;;;5097983;28;20171;-88
2022/05/24 07:06:12;;;;;;;7.75;2.30;;;19.20;56.70;;;;;;5072726;28;20196;-89
2022/05/24 07:08:48;;;;;;;3.10;1.37;;;19.30;55.90;;;;;;5059075;28;20249;-88
2022/05/24 07:11:16;;;;;;;5.43;2.13;;;19.20;56.60;;;;;;5057661;28;20509;-88
2022/05/24 07:13:42;;;;;;;5.00;1.60;;;19.20;56.30;;;;;;5076385;28;20403;-88
2022/05/24 07:16:09;;;;;;;4.20;1.80;;;18.60;57.50;;;;;;5075373;28;20185;-88
2022/05/24 07:18:36;;;;;;;5.10;1.55;;;18.50;58.20;;;;;;5067539;28;20230;-88
2022/05/24 07:21:03;;;;;;;4.40;1.50;;;18.20;59.40;;;;;;5084930;28;20168;-90
2022/05/24 07:23:28;;;;;;;4.78;1.45;;;18.00;59.30;;;;;;5109045;28;20260;-88
2022/05/24 07:26:08;;;;;;;4.23;1.20;;;17.90;60.50;;;;;;5078343;28;20675;-88
2022/05/24 07:28:35;;;;;;;3.15;1.25;;;17.90;60.30;;;;;;5078531;28;20949;-88
2022/05/24 07:31:01;;;;;;;3.28;1.30;;;18.10;60.30;;;;;;5078170;28;20239;-88
2022/05/24 07:33:27;;;;;;;3.57;1.50;;;18.40;59.00;;;;;;5081692;28;20659;-90
2022/05/24 07:35:54;;;;;;;3.73;1.50;;;18.30;57.90;;;;;;5095082;28;20418;-88
2022/05/24 07:38:19;;;;;;;4.38;2.03;;;17.90;58.70;;;;;;5081955;28;20337;-88
2022/05/24 07:46:15;;;;;;;3.95;1.60;;;17.50;60.80;;;;;;5095670;28;20747;-89
2022/05/24 07:48:42;;;;;;;8.85;2.15;;;17.40;60.00;;;;;;5077924;28;20196;-89
2022/05/24 07:51:08;;;;;;;1.60;1.45;;;17.40;60.60;;;;;;5088075;22;20346;-87
2022/05/24 07:53:35;;;;;;;4.95;1.60;;;17.50;60.00;;;;;;5043925;28;20177;-87
2022/05/24 07:56:01;;;;;;;4.93;2.10;;;17.50;60.20;;;;;;5062216;28;20201;-89
2022/05/24 07:58:27;;;;;;;5.10;1.60;;;17.30;59.80;;;;;;5044195;28;20189;-88
2022/05/24 08:00:58;;;;;;;3.40;1.55;;;17.50;59.00;;;;;;5044273;28;20217;-88
2022/05/24 08:03:24;;;;;;;2.55;1.63;;;17.70;58.10;;;;;;5049447;28;20177;-89
2022/05/24 08:05:50;;;;;;;3.00;1.83;;;17.70;57.80;;;;;;5054126;28;20261;-88
2022/05/24 08:08:16;;;;;;;4.55;1.60;;;17.50;58.50;;;;;;5053269;28;20411;-89
2022/05/24 08:10:43;;;;;;;2.65;1.40;;;17.60;59.20;;;;;;5053723;28;20205;-89
2022/05/24 08:13:12;;;;;;;1.40;1.30;;;17.60;59.60;;;;;;5053668;28;20177;-88
2022/05/24 08:15:38;;;;;;;3.35;1.80;;;17.60;59.30;;;;;;5046182;28;20599;-87
2022/05/24 08:18:05;;;;;;;2.47;2.03;;;17.60;58.70;;;;;;5063531;28;20176;-88
2022/05/24 08:20:31;;;;;;;2.70;1.50;;;17.60;58.20;;;;;;5063233;28;20692;-88
2022/05/24 08:22:58;;;;;;;7.57;1.83;;;17.80;58.30;;;;;;5045554;28;20181;-88
2022/05/24 08:25:26;;;;;;;2.72;1.60;;;17.90;58.40;;;;;;5045005;28;20173;-89
2022/05/24 08:27:51;;;;;;;5.97;1.73;;;17.80;58.10;;;;;;5039668;28;20268;-89
2022/05/24 08:30:19;;;;;;;5.97;1.93;;;18.10;57.10;;;;;;5039477;28;20201;-88
2022/05/24 08:32:48;;;;;;;1.90;1.70;;;18.30;56.90;;;;;;5039611;28;20288;-87
2022/05/24 08:35:17;;;;;;;6.28;2.03;;;18.30;57.70;;;;;;5023475;28;20329;-86
2022/05/24 08:37:43;;;;;;;5.40;2.15;;;18.40;57.30;;;;;;5038310;28;20272;-87
2022/05/24 08:40:11;;;;;;;3.08;2.40;;;18.30;57.60;;;;;;5038142;28;20207;-89
2022/05/24 08:42:56;;;;;;;3.58;1.90;;;18.10;56.90;;;;;;5038651;28;20215;-87
2022/05/24 08:48:40;;;;;;;2.40;2.20;;;17.90;58.20;;;;;;5051700;28;20219;-88
2022/05/24 08:51:23;;;;;;;3.00;2.00;;;17.80;58.20;;;;;;5067165;28;20773;-89
2022/05/24 08:53:52;;;;;;;5.97;2.05;;;17.90;58.60;;;;;;5048453;28;20257;-88
2022/05/24 08:56:25;;;;;;;3.35;2.10;;;17.70;58.50;;;;;;5045812;28;20197;-89
2022/05/24 08:58:58;;;;;;;2.30;1.70;;;17.60;59.00;;;;;;5048873;28;20267;-88
2022/05/24 09:01:32;;;;;;;2.65;2.30;;;17.50;59.30;;;;;;5045320;28;20188;-89
2022/05/24 09:04:00;;;;;;;3.65;1.75;;;17.50;59.90;;;;;;5041034;28;20271;-89
2022/05/24 09:06:44;;;;;;;3.03;1.95;;;17.80;58.80;;;;;;5040703;28;20197;-88
2022/05/24 09:09:16;;;;;;;1.73;1.35;;;17.90;56.80;;;;;;5040551;28;20199;-89
2022/05/24 09:12:03;;;;;;;3.75;1.58;;;18.10;56.00;;;;;;5039447;28;20541;-89
2022/05/24 09:14:57;;;;;;;4.88;1.52;;;18.50;55.80;;;;;;5060962;28;20157;-89
2022/05/24 09:17:28;;;;;;;3.20;1.35;;;18.80;53.70;;;;;;5061207;28;20244;-89
2022/05/24 09:19:54;;;;;;;2.83;1.50;;;18.70;53.30;;;;;;5038673;28;20326;-88
2022/05/24 09:22:22;;;;;;;1.87;1.10;;;18.50;54.20;;;;;;5038677;28;20231;-88
2022/05/24 09:24:56;;;;;;;2.33;1.20;;;18.50;54.50;;;;;;5038169;28;20428;-87
2022/05/24 09:27:52;;;;;;;5.05;1.30;;;18.30;54.60;;;;;;5037497;28;20212;-88
2022/05/24 09:30:28;;;;;;;2.50;1.25;;;18.20;54.90;;;;;;5037950;28;20197;-88
2022/05/24 09:33:18;;;;;;;2.63;1.15;;;18.30;54.60;;;;;;5055146;28;20207;-87
2022/05/24 09:35:44;;;;;;;7.93;1.35;;;18.60;54.60;;;;;;5037918;28;20173;-88
2022/05/24 09:38:16;;;;;;;2.13;1.37;;;18.50;53.10;;;;;;5055121;28;20172;-88
2022/05/24 09:40:48;;;;;;;3.28;1.25;;;18.40;53.20;;;;;;5037230;28;20855;-87
2022/05/24 09:43:19;;;;;;;5.68;1.40;;;18.40;53.50;;;;;;5037330;28;20319;-88
2022/05/24 09:45:47;;;;;;;5.13;1.20;;;18.60;53.60;;;;;;5036644;28;20177;-88
2022/05/24 09:48:26;;;;;;;4.07;1.83;;;18.30;53.70;;;;;;5036659;28;20675;-88
2022/05/24 09:50:53;;;;;;;5.65;1.83;;;18.20;54.70;;;;;;5054552;28;20223;-87
2022/05/24 09:53:22;;;;;;;2.28;1.33;;;18.10;55.60;;;;;;5054994;28;20173;-89
2022/05/24 09:55:59;;;;;;;2.22;1.25;;;18.00;55.50;;;;;;5036759;28;20173;-87
2022/05/24 09:58:51;;;;;;;4.65;1.55;;;18.10;55.20;;;;;;5038468;28;20173;-89
2022/05/24 10:01:31;;;;;;;6.05;1.60;;;18.20;55.00;;;;;;5036406;28;20197;-89
2022/05/24 10:04:09;;;;;;;2.78;1.30;;;18.10;55.40;;;;;;5036814;28;20177;-88
2022/05/24 10:06:39;;;;;;;1.80;1.38;;;18.20;55.20;;;;;;5036455;28;20596;-89
2022/05/24 10:09:19;;;;;;;4.20;1.60;;;18.20;54.70;;;;;;5036781;28;20704;-87
2022/05/24 10:12:07;;;;;;;5.93;1.70;;;18.50;54.20;;;;;;5036852;28;20188;-88
2022/05/24 10:14:36;;;;;;;2.63;1.50;;;18.80;53.60;;;;;;5054841;28;20306;-87
2022/05/24 10:17:27;;;;;;;1.70;1.20;;;19.00;53.70;;;;;;5036252;28;20207;-86
2022/05/24 10:20:07;;;;;;;3.67;1.20;;;19.50;51.50;;;;;;5037939;28;20705;-87
2022/05/24 10:23:12;;;;;;;3.47;1.20;;;19.70;50.00;;;;;;5038885;28;20431;-88
2022/05/24 10:25:48;;;;;;;2.37;1.30;;;19.90;48.20;;;;;;5040644;28;20957;-88
2022/05/24 10:28:35;;;;;;;3.00;1.30;;;19.90;48.50;;;;;;5038962;28;20490;-88
2022/05/24 10:31:19;;;;;;;7.00;1.40;;;19.70;48.40;;;;;;5038678;28;20518;-88
2022/05/24 10:40:10;;;;;;;2.37;1.47;;;20.00;49.20;;;;;;5056982;28;20426;-88
2022/05/24 10:43:08;;;;;;;6.90;1.40;;;20.10;48.90;;;;;;5006019;28;20427;-88
2022/05/24 10:45:52;;;;;;;3.27;1.20;;;20.30;47.30;;;;;;5036106;28;20944;-88
2022/05/24 10:48:34;;;;;;;1.40;1.27;;;20.60;46.80;;;;;;5053503;28;20416;-89
2022/05/24 10:51:28;;;;;;;2.27;1.27;;;20.50;47.70;;;;;;5054892;28;20448;-87
2022/05/24 10:54:01;;;;;;;4.50;1.10;;;20.30;48.10;;;;;;5037081;28;20447;-88
2022/05/24 10:56:29;;;;;;;2.47;1.07;;;19.90;47.80;;;;;;5037765;28;20420;-86
2022/05/24 10:59:19;;;;;;;1.20;0.90;;;19.60;46.40;;;;;;5054548;28;20411;-88
2022/05/24 11:01:56;;;;;;;3.30;1.00;;;19.30;46.40;;;;;;5055287;28;20490;-86
2022/05/24 11:04:46;;;;;;;1.80;0.90;;;19.10;47.80;;;;;;5021299;28;20427;-88
2022/05/24 11:07:17;;;;;;;1.33;1.00;;;18.90;49.10;;;;;;5044562;28;20200;-90
2022/05/24 11:10:03;;;;;;;1.67;1.00;;;18.80;49.50;;;;;;5047500;28;20201;-89
2022/05/24 11:12:36;;;;;;;1.92;1.20;;;18.60;49.70;;;;;;5050148;28;20165;-89
2022/05/24 11:15:33;;;;;;;1.50;1.10;;;18.10;50.10;;;;;;5048807;28;20181;-90
2022/05/24 11:18:09;;;;;;;2.53;1.45;;;18.00;52.30;;;;;;5048882;28;20210;-88
2022/05/24 11:20:39;;;;;;;4.78;1.40;;;17.90;55.20;;;;;;5042330;28;20220;-89
2022/05/24 11:23:16;;;;;;;2.13;1.02;;;17.70;60.30;;;;;;5038308;28;20180;-87
2022/05/24 11:26:14;;;;;;;2.03;1.08;;;17.50;61.30;;;;;;5038617;28;20263;-88
2022/05/24 11:28:52;;;;;;;3.58;1.40;;;17.30;62.00;;;;;;5031186;28;20668;-87
2022/05/24 11:31:23;;;;;;;7.18;1.50;;;17.20;62.40;;;;;;5056990;28;20203;-88
2022/05/24 11:33:52;;;;;;;5.10;1.92;;;17.20;65.10;;;;;;5039321;28;20205;-88
2022/05/24 11:36:34;;;;;;;2.88;2.22;;;17.20;66.80;;;;;;5024467;28;20185;-87
2022/05/24 11:39:09;;;;;;;4.18;2.15;;;17.20;70.00;;;;;;5061136;28;20172;-88
2022/05/24 11:41:35;;;;;;;2.42;2.00;;;16.90;73.90;;;;;;5042668;28;20201;-89
2022/05/24 11:44:05;;;;;;;3.00;2.03;;;16.80;76.70;;;;;;5043344;28;20274;-88
2022/05/24 11:46:34;;;;;;;2.78;1.65;;;16.80;77.00;;;;;;5043015;28;20671;-89
2022/05/24 11:49:09;;;;;;;3.25;1.90;;;16.90;75.80;;;;;;5044060;28;20195;-87
2022/05/24 11:51:39;;;;;;;2.85;1.52;;;16.90;74.00;;;;;;5062579;28;20157;-89
2022/05/24 11:54:17;;;;;;;2.20;1.40;;;17.10;73.70;;;;;;5062241;28;20181;-89
2022/05/24 11:57:01;;;;;;;2.45;1.17;;;17.20;73.00;;;;;;5043030;28;20234;-87
2022/05/24 11:59:48;;;;;;;2.28;1.52;;;17.60;72.60;;;;;;5042830;28;20200;-88
2022/05/24 12:02:24;;;;;;;1.85;1.50;;;17.70;71.60;;;;;;5060422;28;20181;-88
2022/05/24 12:07:55;;;;;;;2.65;1.40;;;17.60;68.70;;;;;;5060633;28;20243;-90
2022/05/24 12:10:21;;;;;;;5.18;2.10;;;17.40;67.60;;;;;;5042247;28;20189;-88
2022/05/24 12:12:54;;;;;;;2.20;1.80;;;17.40;69.50;;;;;;5061276;28;20227;-87
2022/05/24 12:15:30;;;;;;;2.22;1.40;;;17.60;69.60;;;;;;5042827;28;20616;-88
2022/05/24 12:17:59;;;;;;;2.97;1.67;;;17.70;70.60;;;;;;5042869;28;20199;-89
2022/05/24 12:20:48;;;;;;;2.15;1.50;;;17.70;69.90;;;;;;5059649;28;20320;-87
2022/05/24 12:23:15;;;;;;;2.95;1.30;;;17.90;65.20;;;;;;5039422;28;20181;-89
2022/05/24 12:25:50;;;;;;;1.75;1.65;;;18.10;60.90;;;;;;5038963;28;20205;-88
2022/05/24 12:28:17;;;;;;;2.67;1.50;;;18.10;60.40;;;;;;5039766;28;20172;-87
2022/05/24 12:30:46;;;;;;;2.20;1.35;;;18.10;61.10;;;;;;5039957;28;20193;-86
2022/05/24 12:33:30;;;;;;;3.47;2.20;;;17.90;62.00;;;;;;5040005;28;20185;-91
2022/05/24 12:36:18;;;;;;;2.30;1.58;;;17.80;63.20;;;;;;5039809;28;20262;-88
2022/05/24 12:38:49;;;;;;;2.78;1.40;;;17.80;63.50;;;;;;5039694;28;20188;-88
2022/05/24 12:41:44;;;;;;;2.30;1.40;;;18.00;62.80;;;;;;5058186;28;20284;-89
2022/05/24 12:44:21;;;;;;;1.40;1.25;;;17.90;61.70;;;;;;5027497;28;20177;-89
2022/05/24 12:46:53;;;;;;;2.03;1.50;;;18.00;62.10;;;;;;5039788;28;20668;-87
2022/05/24 12:49:25;;;;;;;2.38;1.15;;;18.20;62.00;;;;;;5023618;28;20193;-88
2022/05/24 12:52:13;;;;;;;3.10;1.20;;;18.30;61.50;;;;;;5042791;28;20169;-89
2022/05/24 12:54:48;;;;;;;1.88;1.10;;;18.90;57.10;;;;;;5052367;28;20178;-89
2022/05/24 12:57:39;;;;;;;2.65;1.30;;;19.10;56.30;;;;;;5070741;28;20160;-88
2022/05/24 13:00:19;;;;;;;2.70;1.40;;;19.20;55.80;;;;;;5062730;28;20201;-87
2022/05/24 13:02:46;;;;;;;2.83;1.27;;;19.00;56.60;;;;;;5023136;28;20188;-90
2022/05/24 13:05:18;;;;;;;3.15;1.25;;;19.20;54.90;;;;;;5066684;28;20188;-88
2022/05/24 13:07:57;;;;;;;2.40;1.00;;;19.30;54.60;;;;;;5040965;28;20197;-87
2022/05/24 13:10:25;;;;;;;2.25;1.40;;;18.90;57.50;;;;;;5038806;28;20208;-87
2022/05/24 13:13:00;;;;;;;3.35;1.25;;;18.60;60.50;;;;;;5056362;28;20165;-87
2022/05/24 13:15:54;;;;;;;2.17;1.55;;;18.40;64.10;;;;;;5037896;28;20227;-87
2022/05/24 13:18:27;;;;;;;4.15;1.50;;;18.00;68.80;;;;;;5030009;28;20310;-87
2022/05/24 13:21:03;;;;;;;6.57;1.60;;;18.20;72.00;;;;;;5038364;28;20200;-88
2022/05/24 13:23:41;;;;;;;1.60;1.23;;;17.90;73.90;;;;;;5043812;28;20180;-88
2022/05/24 13:26:08;;;;;;;4.38;1.27;;;17.80;75.90;;;;;;5045554;28;20201;-88
2022/05/24 13:28:38;;;;;;;3.58;1.17;;;17.60;77.40;;;;;;5063981;28;20169;-87
2022/05/24 13:33:51;;;;;;;4.47;1.30;;;17.80;73.90;;;;;;5064103;28;20248;-87
2022/05/24 13:36:29;;;;;;;4.00;1.55;;;17.80;70.00;;;;;;5041140;28;20671;-87
2022/05/24 13:39:03;;;;;;;2.47;1.20;;;17.80;71.40;;;;;;5059444;28;20587;-88
2022/05/24 13:41:52;;;;;;;2.72;1.42;;;17.80;72.80;;;;;;5062048;28;20263;-87
2022/05/24 13:44:21;;;;;;;4.25;1.20;;;17.90;69.80;;;;;;5062336;28;20185;-88
2022/05/24 13:46:54;;;;;;;4.22;1.30;;;18.00;71.60;;;;;;5043243;28;20205;-88